sensor_id;sensor_type;location;lat;lon;timestamp;temperature;humidity
19555;DHT22;9924;50.828;6.440;2022-12-29T00:00:47;11.20;99.90
19555;DHT22;9924;50.828;6.440;2022-12-29T00:03:31;11.30;99.90
19555;DHT22;9924;50.828;6.440;2022-12-29T00:06:15;11.40;99.90
19555;DHT22;9924;50.828;6.440;2022-12-29T00:09:00;11.40;99.90
19555;DHT22;9924;50.828;6.440;2022-12-29T00:11:45;11.50;99.90
19555;DHT22;9924;50.828;6.440;2022-12-29T00:14:29;11.60;99.90
19555;DHT22;9924;50.828;6.440;2022-12-29T00:17:32;11.60;99.90
19555;DHT22;9924;50.828;6.440;2022-12-29T00:20:17;11.60;99.90
19555;DHT22;9924;50.828;6.440;2022-12-29T00:23:20;11.70;99.90
19555;DHT22;9924;50.828;6.440;2022-12-29T00:26:24;11.70;99.90
19555;DHT22;9924;50.828;6.440;2022-12-29T00:29:27;11.90;99.90
19555;DHT22;9924;50.828;6.440;2022-12-29T00:32:30;11.90;99.90
19555;DHT22;9924;50.828;6.440;2022-12-29T00:35:39;11.90;99.90
19555;DHT22;9924;50.828;6.440;2022-12-29T00:38:24;12.00;99.90
19555;DHT22;9924;50.828;6.440;2022-12-29T00:41:27;11.90;99.90
19555;DHT22;9924;50.828;6.440;2022-12-29T00:44:30;11.90;99.90
19555;DHT22;9924;50.828;6.440;2022-12-29T00:47:15;11.80;99.90
19555;DHT22;9924;50.828;6.440;2022-12-29T00:49:59;11.80;99.90
19555;DHT22;9924;50.828;6.440;2022-12-29T00:52:44;11.70;99.90
19555;DHT22;9924;50.828;6.440;2022-12-29T00:55:28;11.70;99.90
19555;DHT22;9924;50.828;6.440;2022-12-29T00:58:13;11.70;99.90
19555;DHT22;9924;50.828;6.440;2022-12-29T01:01:02;11.50;99.90
19555;DHT22;9924;50.828;6.440;2022-12-29T01:03:46;11.50;99.90
19555;DHT22;9924;50.828;6.440;2022-12-29T01:06:31;11.50;99.90
19555;DHT22;9924;50.828;6.440;2022-12-29T01:09:17;11.50;99.90
19555;DHT22;9924;50.828;6.440;2022-12-29T01:12:20;11.70;99.90
19555;DHT22;9924;50.828;6.440;2022-12-29T01:15:24;11.70;99.90
19555;DHT22;9924;50.828;6.440;2022-12-29T01:18:08;11.80;99.90
19555;DHT22;9924;50.828;6.440;2022-12-29T01:21:06;11.80;99.90
19555;DHT22;9924;50.828;6.440;2022-12-29T01:23:50;11.80;99.90
19555;DHT22;9924;50.828;6.440;2022-12-29T01:26:34;11.80;99.90
19555;DHT22;9924;50.828;6.440;2022-12-29T01:29:19;11.80;99.90
19555;DHT22;9924;50.828;6.440;2022-12-29T01:32:03;11.90;99.90
19555;DHT22;9924;50.828;6.440;2022-12-29T01:34:48;11.90;99.90
19555;DHT22;9924;50.828;6.440;2022-12-29T01:37:33;11.80;99.90
19555;DHT22;9924;50.828;6.440;2022-12-29T01:40:17;11.70;99.90
19555;DHT22;9924;50.828;6.440;2022-12-29T01:43:02;11.70;99.90
19555;DHT22;9924;50.828;6.440;2022-12-29T01:45:50;11.70;99.90
19555;DHT22;9924;50.828;6.440;2022-12-29T01:48:35;11.60;99.90
19555;DHT22;9924;50.828;6.440;2022-12-29T01:51:22;11.70;99.90
19555;DHT22;9924;50.828;6.440;2022-12-29T01:54:11;11.80;99.90
19555;DHT22;9924;50.828;6.440;2022-12-29T01:56:59;11.80;99.90
19555;DHT22;9924;50.828;6.440;2022-12-29T01:59:53;11.80;99.90
19555;DHT22;9924;50.828;6.440;2022-12-29T02:02:45;11.80;99.90
19555;DHT22;9924;50.828;6.440;2022-12-29T02:08:22;11.70;99.90
19555;DHT22;9924;50.828;6.440;2022-12-29T02:11:08;11.70;99.90
19555;DHT22;9924;50.828;6.440;2022-12-29T02:13:53;11.80;99.90
19555;DHT22;9924;50.828;6.440;2022-12-29T02:23:30;12.00;99.90
19555;DHT22;9924;50.828;6.440;2022-12-29T02:26:42;12.00;99.90
19555;DHT22;9924;50.828;6.440;2022-12-29T02:35:36;11.90;99.90
19555;DHT22;9924;50.828;6.440;2022-12-29T02:51:04;11.80;99.90
19555;DHT22;9924;50.828;6.440;2022-12-29T02:53:53;11.90;99.90
19555;DHT22;9924;50.828;6.440;2022-12-29T02:56:57;11.90;99.90
19555;DHT22;9924;50.828;6.440;2022-12-29T02:59:43;11.90;99.90
19555;DHT22;9924;50.828;6.440;2022-12-29T03:02:30;11.80;99.90
19555;DHT22;9924;50.828;6.440;2022-12-29T03:05:59;11.70;99.90
19555;DHT22;9924;50.828;6.440;2022-12-29T03:11:45;11.80;99.90
19555;DHT22;9924;50.828;6.440;2022-12-29T03:15:05;11.80;99.90
19555;DHT22;9924;50.828;6.440;2022-12-29T03:18:44;11.70;99.90
19555;DHT22;9924;50.828;6.440;2022-12-29T03:24:40;11.90;99.90
19555;DHT22;9924;50.828;6.440;2022-12-29T03:27:39;11.90;99.90
19555;DHT22;9924;50.828;6.440;2022-12-29T03:30:24;11.90;99.90
19555;DHT22;9924;50.828;6.440;2022-12-29T03:33:13;12.00;99.90
19555;DHT22;9924;50.828;6.440;2022-12-29T03:36:01;12.00;99.90
19555;DHT22;9924;50.828;6.440;2022-12-29T03:38:51;11.90;99.90
19555;DHT22;9924;50.828;6.440;2022-12-29T03:41:42;11.90;99.90
19555;DHT22;9924;50.828;6.440;2022-12-29T03:44:46;11.90;99.90
19555;DHT22;9924;50.828;6.440;2022-12-29T03:47:31;11.90;99.90
19555;DHT22;9924;50.828;6.440;2022-12-29T03:50:15;11.90;99.90
19555;DHT22;9924;50.828;6.440;2022-12-29T03:53:00;12.00;99.90
19555;DHT22;9924;50.828;6.440;2022-12-29T03:55:45;12.10;99.90
19555;DHT22;9924;50.828;6.440;2022-12-29T03:58:29;12.00;99.90
19555;DHT22;9924;50.828;6.440;2022-12-29T04:01:13;12.00;99.90
19555;DHT22;9924;50.828;6.440;2022-12-29T04:03:58;12.00;99.90
19555;DHT22;9924;50.828;6.440;2022-12-29T04:06:42;12.00;99.90
19555;DHT22;9924;50.828;6.440;2022-12-29T04:09:26;12.00;99.90
19555;DHT22;9924;50.828;6.440;2022-12-29T04:12:11;12.00;99.90
19555;DHT22;9924;50.828;6.440;2022-12-29T04:14:56;12.00;99.90
19555;DHT22;9924;50.828;6.440;2022-12-29T04:17:40;12.00;99.90
19555;DHT22;9924;50.828;6.440;2022-12-29T04:20:24;11.90;99.90
19555;DHT22;9924;50.828;6.440;2022-12-29T04:23:45;11.90;99.90
19555;DHT22;9924;50.828;6.440;2022-12-29T04:26:29;11.80;99.90
19555;DHT22;9924;50.828;6.440;2022-12-29T04:29:13;11.80;99.90
19555;DHT22;9924;50.828;6.440;2022-12-29T04:31:58;11.90;99.90
19555;DHT22;9924;50.828;6.440;2022-12-29T04:34:42;12.00;99.90
19555;DHT22;9924;50.828;6.440;2022-12-29T04:37:26;12.10;99.90
19555;DHT22;9924;50.828;6.440;2022-12-29T04:40:11;12.10;99.90
19555;DHT22;9924;50.828;6.440;2022-12-29T04:42:56;12.10;99.90
19555;DHT22;9924;50.828;6.440;2022-12-29T04:45:44;12.10;99.90
19555;DHT22;9924;50.828;6.440;2022-12-29T04:48:28;12.00;99.90
19555;DHT22;9924;50.828;6.440;2022-12-29T04:51:13;12.10;99.90
19555;DHT22;9924;50.828;6.440;2022-12-29T04:53:57;12.00;99.90
19555;DHT22;9924;50.828;6.440;2022-12-29T04:56:42;12.00;99.90
19555;DHT22;9924;50.828;6.440;2022-12-29T04:59:26;12.00;99.90
19555;DHT22;9924;50.828;6.440;2022-12-29T05:02:10;12.00;99.90
19555;DHT22;9924;50.828;6.440;2022-12-29T05:04:55;12.00;99.90
19555;DHT22;9924;50.828;6.440;2022-12-29T05:07:39;11.90;99.90
19555;DHT22;9924;50.828;6.440;2022-12-29T05:10:24;11.90;99.90
19555;DHT22;9924;50.828;6.440;2022-12-29T05:13:08;11.80;99.90
19555;DHT22;9924;50.828;6.440;2022-12-29T05:15:53;11.80;99.90
19555;DHT22;9924;50.828;6.440;2022-12-29T05:18:37;11.80;99.90
19555;DHT22;9924;50.828;6.440;2022-12-29T05:21:22;11.80;99.90
19555;DHT22;9924;50.828;6.440;2022-12-29T05:24:06;11.90;99.90
19555;DHT22;9924;50.828;6.440;2022-12-29T05:26:50;11.80;99.90
19555;DHT22;9924;50.828;6.440;2022-12-29T05:29:35;11.80;99.90
19555;DHT22;9924;50.828;6.440;2022-12-29T05:32:19;11.80;99.90
19555;DHT22;9924;50.828;6.440;2022-12-29T05:35:04;11.80;99.90
19555;DHT22;9924;50.828;6.440;2022-12-29T05:37:49;11.70;99.90
19555;DHT22;9924;50.828;6.440;2022-12-29T05:40:33;11.80;99.90
19555;DHT22;9924;50.828;6.440;2022-12-29T05:43:17;11.70;99.90
19555;DHT22;9924;50.828;6.440;2022-12-29T05:46:02;11.70;99.90
19555;DHT22;9924;50.828;6.440;2022-12-29T05:48:47;11.60;99.90
19555;DHT22;9924;50.828;6.440;2022-12-29T05:51:31;11.60;99.90
19555;DHT22;9924;50.828;6.440;2022-12-29T05:54:16;11.40;99.90
19555;DHT22;9924;50.828;6.440;2022-12-29T05:57:00;11.20;99.90
19555;DHT22;9924;50.828;6.440;2022-12-29T05:59:44;11.30;99.90
19555;DHT22;9924;50.828;6.440;2022-12-29T06:02:29;11.20;99.90
19555;DHT22;9924;50.828;6.440;2022-12-29T06:05:13;11.20;99.90
19555;DHT22;9924;50.828;6.440;2022-12-29T06:07:58;11.20;99.90
19555;DHT22;9924;50.828;6.440;2022-12-29T06:10:43;11.20;99.90
19555;DHT22;9924;50.828;6.440;2022-12-29T06:13:27;11.20;99.90
19555;DHT22;9924;50.828;6.440;2022-12-29T06:16:12;11.30;99.90
19555;DHT22;9924;50.828;6.440;2022-12-29T06:18:56;11.30;99.90
19555;DHT22;9924;50.828;6.440;2022-12-29T06:21:40;11.30;99.90
19555;DHT22;9924;50.828;6.440;2022-12-29T06:24:24;11.30;99.90
19555;DHT22;9924;50.828;6.440;2022-12-29T06:27:09;11.40;99.90
19555;DHT22;9924;50.828;6.440;2022-12-29T06:29:53;11.30;99.90
19555;DHT22;9924;50.828;6.440;2022-12-29T06:32:38;11.40;99.90
19555;DHT22;9924;50.828;6.440;2022-12-29T06:35:22;11.40;99.90
19555;DHT22;9924;50.828;6.440;2022-12-29T06:38:06;11.50;99.90
19555;DHT22;9924;50.828;6.440;2022-12-29T06:40:51;11.50;99.90
19555;DHT22;9924;50.828;6.440;2022-12-29T06:43:35;11.50;99.90
19555;DHT22;9924;50.828;6.440;2022-12-29T06:46:22;11.40;99.90
19555;DHT22;9924;50.828;6.440;2022-12-29T06:49:06;11.40;99.90
19555;DHT22;9924;50.828;6.440;2022-12-29T06:51:51;11.40;99.90
19555;DHT22;9924;50.828;6.440;2022-12-29T06:54:35;11.40;99.90
19555;DHT22;9924;50.828;6.440;2022-12-29T06:57:20;11.40;99.90
19555;DHT22;9924;50.828;6.440;2022-12-29T07:00:05;11.30;99.90
19555;DHT22;9924;50.828;6.440;2022-12-29T07:02:51;11.30;99.90
19555;DHT22;9924;50.828;6.440;2022-12-29T07:05:36;11.30;99.90
19555;DHT22;9924;50.828;6.440;2022-12-29T07:08:20;11.20;99.90
19555;DHT22;9924;50.828;6.440;2022-12-29T07:11:05;11.20;99.90
19555;DHT22;9924;50.828;6.440;2022-12-29T07:13:50;11.20;99.90
19555;DHT22;9924;50.828;6.440;2022-12-29T07:16:34;11.10;99.90
19555;DHT22;9924;50.828;6.440;2022-12-29T07:19:20;11.10;99.90
19555;DHT22;9924;50.828;6.440;2022-12-29T07:22:05;11.10;99.90
19555;DHT22;9924;50.828;6.440;2022-12-29T07:24:49;11.00;99.90
19555;DHT22;9924;50.828;6.440;2022-12-29T07:27:33;11.00;99.90
19555;DHT22;9924;50.828;6.440;2022-12-29T07:30:18;11.00;99.90
19555;DHT22;9924;50.828;6.440;2022-12-29T07:33:02;10.90;99.90
19555;DHT22;9924;50.828;6.440;2022-12-29T07:35:46;10.90;99.90
19555;DHT22;9924;50.828;6.440;2022-12-29T07:38:31;11.00;99.90
19555;DHT22;9924;50.828;6.440;2022-12-29T07:41:15;11.00;99.90
19555;DHT22;9924;50.828;6.440;2022-12-29T07:44:00;11.10;99.90
19555;DHT22;9924;50.828;6.440;2022-12-29T07:46:45;11.00;99.90
19555;DHT22;9924;50.828;6.440;2022-12-29T07:49:29;11.10;99.90
19555;DHT22;9924;50.828;6.440;2022-12-29T07:52:14;11.00;99.90
19555;DHT22;9924;50.828;6.440;2022-12-29T07:54:58;11.00;99.90
19555;DHT22;9924;50.828;6.440;2022-12-29T07:57:43;11.00;99.90
19555;DHT22;9924;50.828;6.440;2022-12-29T08:00:27;11.10;99.90
19555;DHT22;9924;50.828;6.440;2022-12-29T08:03:11;11.10;99.90
19555;DHT22;9924;50.828;6.440;2022-12-29T08:05:56;11.00;99.90
19555;DHT22;9924;50.828;6.440;2022-12-29T08:08:40;11.00;99.90
19555;DHT22;9924;50.828;6.440;2022-12-29T08:11:25;11.00;99.90
19555;DHT22;9924;50.828;6.440;2022-12-29T08:14:09;11.00;99.90
19555;DHT22;9924;50.828;6.440;2022-12-29T08:16:54;10.90;99.90
19555;DHT22;9924;50.828;6.440;2022-12-29T08:19:38;10.90;99.90
19555;DHT22;9924;50.828;6.440;2022-12-29T08:22:23;10.90;99.90
19555;DHT22;9924;50.828;6.440;2022-12-29T08:25:08;10.90;99.90
19555;DHT22;9924;50.828;6.440;2022-12-29T08:27:52;10.90;99.90
19555;DHT22;9924;50.828;6.440;2022-12-29T08:30:37;10.90;99.90
19555;DHT22;9924;50.828;6.440;2022-12-29T08:33:21;10.80;99.90
19555;DHT22;9924;50.828;6.440;2022-12-29T08:36:06;10.80;99.90
19555;DHT22;9924;50.828;6.440;2022-12-29T08:38:51;10.80;99.90
19555;DHT22;9924;50.828;6.440;2022-12-29T08:41:36;10.80;99.90
19555;DHT22;9924;50.828;6.440;2022-12-29T08:44:20;10.90;99.90
19555;DHT22;9924;50.828;6.440;2022-12-29T08:47:05;10.90;99.90
19555;DHT22;9924;50.828;6.440;2022-12-29T08:49:49;10.90;99.90
19555;DHT22;9924;50.828;6.440;2022-12-29T08:52:34;10.90;99.90
19555;DHT22;9924;50.828;6.440;2022-12-29T08:55:18;11.00;99.90
19555;DHT22;9924;50.828;6.440;2022-12-29T08:58:02;11.00;99.90
19555;DHT22;9924;50.828;6.440;2022-12-29T09:00:47;11.00;99.90
19555;DHT22;9924;50.828;6.440;2022-12-29T09:03:31;11.00;99.90
19555;DHT22;9924;50.828;6.440;2022-12-29T09:06:17;11.00;99.90
19555;DHT22;9924;50.828;6.440;2022-12-29T09:09:01;11.00;99.90
19555;DHT22;9924;50.828;6.440;2022-12-29T09:11:46;11.10;99.90
19555;DHT22;9924;50.828;6.440;2022-12-29T09:14:31;11.10;99.90
19555;DHT22;9924;50.828;6.440;2022-12-29T09:17:16;11.20;99.90
19555;DHT22;9924;50.828;6.440;2022-12-29T09:20:19;11.30;99.90
19555;DHT22;9924;50.828;6.440;2022-12-29T09:23:04;11.50;99.90
19555;DHT22;9924;50.828;6.440;2022-12-29T09:25:50;11.60;99.90
19555;DHT22;9924;50.828;6.440;2022-12-29T09:28:35;11.80;99.90
19555;DHT22;9924;50.828;6.440;2022-12-29T09:31:20;12.10;99.90
19555;DHT22;9924;50.828;6.440;2022-12-29T09:34:05;12.00;99.90
19555;DHT22;9924;50.828;6.440;2022-12-29T09:36:50;12.10;99.90
19555;DHT22;9924;50.828;6.440;2022-12-29T09:39:35;12.10;99.90
19555;DHT22;9924;50.828;6.440;2022-12-29T09:42:35;12.20;99.90
19555;DHT22;9924;50.828;6.440;2022-12-29T09:45:43;12.40;99.90
19555;DHT22;9924;50.828;6.440;2022-12-29T09:48:36;12.50;99.90
19555;DHT22;9924;50.828;6.440;2022-12-29T09:51:23;12.40;99.90
19555;DHT22;9924;50.828;6.440;2022-12-29T10:00:49;12.60;99.90
19555;DHT22;9924;50.828;6.440;2022-12-29T10:03:50;12.30;99.90
19555;DHT22;9924;50.828;6.440;2022-12-29T10:06:39;12.20;99.90
19555;DHT22;9924;50.828;6.440;2022-12-29T10:09:43;12.30;99.90
19555;DHT22;9924;50.828;6.440;2022-12-29T10:24:38;12.30;99.90
19555;DHT22;9924;50.828;6.440;2022-12-29T10:27:24;12.50;99.90
19555;DHT22;9924;50.828;6.440;2022-12-29T10:30:12;12.70;99.90
19555;DHT22;9924;50.828;6.440;2022-12-29T10:33:04;12.80;99.90
19555;DHT22;9924;50.828;6.440;2022-12-29T10:35:50;12.60;99.90
19555;DHT22;9924;50.828;6.440;2022-12-29T10:38:39;12.60;99.90
19555;DHT22;9924;50.828;6.440;2022-12-29T10:41:31;12.70;99.90
19555;DHT22;9924;50.828;6.440;2022-12-29T10:44:18;12.80;99.90
19555;DHT22;9924;50.828;6.440;2022-12-29T10:47:05;13.10;99.90
19555;DHT22;9924;50.828;6.440;2022-12-29T10:49:51;13.10;99.90
19555;DHT22;9924;50.828;6.440;2022-12-29T10:52:38;13.40;99.90
19555;DHT22;9924;50.828;6.440;2022-12-29T10:55:28;13.40;99.90
19555;DHT22;9924;50.828;6.440;2022-12-29T10:58:25;13.50;99.90
19555;DHT22;9924;50.828;6.440;2022-12-29T11:01:12;13.60;99.90
19555;DHT22;9924;50.828;6.440;2022-12-29T11:04:29;13.30;99.90
19555;DHT22;9924;50.828;6.440;2022-12-29T11:07:18;13.20;99.90
19555;DHT22;9924;50.828;6.440;2022-12-29T11:10:36;13.30;99.90
19555;DHT22;9924;50.828;6.440;2022-12-29T11:13:28;13.40;99.90
19555;DHT22;9924;50.828;6.440;2022-12-29T11:16:13;13.50;99.90
19555;DHT22;9924;50.828;6.440;2022-12-29T11:18:58;13.50;99.90
19555;DHT22;9924;50.828;6.440;2022-12-29T11:21:42;13.50;99.90
19555;DHT22;9924;50.828;6.440;2022-12-29T11:24:29;13.00;99.90
19555;DHT22;9924;50.828;6.440;2022-12-29T11:27:19;12.70;99.90
19555;DHT22;9924;50.828;6.440;2022-12-29T11:30:23;12.80;99.90
19555;DHT22;9924;50.828;6.440;2022-12-29T11:33:08;12.40;99.90
19555;DHT22;9924;50.828;6.440;2022-12-29T11:35:58;12.20;99.90
19555;DHT22;9924;50.828;6.440;2022-12-29T11:38:50;12.30;99.90
19555;DHT22;9924;50.828;6.440;2022-12-29T11:41:35;12.50;99.90
19555;DHT22;9924;50.828;6.440;2022-12-29T11:44:20;12.80;99.90
19555;DHT22;9924;50.828;6.440;2022-12-29T11:47:05;12.90;99.90
19555;DHT22;9924;50.828;6.440;2022-12-29T11:49:55;12.80;99.90
19555;DHT22;9924;50.828;6.440;2022-12-29T11:52:40;13.10;99.90
19555;DHT22;9924;50.828;6.440;2022-12-29T11:55:26;12.90;99.90
19555;DHT22;9924;50.828;6.440;2022-12-29T11:58:15;12.50;99.90
19555;DHT22;9924;50.828;6.440;2022-12-29T12:01:04;12.30;99.90
19555;DHT22;9924;50.828;6.440;2022-12-29T12:03:56;12.20;99.90
19555;DHT22;9924;50.828;6.440;2022-12-29T12:07:28;12.20;99.90
19555;DHT22;9924;50.828;6.440;2022-12-29T12:10:17;12.00;99.90
19555;DHT22;9924;50.828;6.440;2022-12-29T12:13:08;11.70;99.90
19555;DHT22;9924;50.828;6.440;2022-12-29T12:16:17;11.50;99.90
19555;DHT22;9924;50.828;6.440;2022-12-29T12:19:09;11.40;99.90
19555;DHT22;9924;50.828;6.440;2022-12-29T12:22:27;11.40;99.90
19555;DHT22;9924;50.828;6.440;2022-12-29T12:25:23;11.40;99.90
19555;DHT22;9924;50.828;6.440;2022-12-29T12:28:20;12.00;99.90
19555;DHT22;9924;50.828;6.440;2022-12-29T12:34:19;13.60;99.90
19555;DHT22;9924;50.828;6.440;2022-12-29T12:37:26;13.90;99.90
19555;DHT22;9924;50.828;6.440;2022-12-29T12:43:35;13.80;99.90
19555;DHT22;9924;50.828;6.440;2022-12-29T12:53:05;12.20;99.90
19555;DHT22;9924;50.828;6.440;2022-12-29T13:02:29;11.60;99.90
19555;DHT22;9924;50.828;6.440;2022-12-29T13:05:25;11.60;99.90
19555;DHT22;9924;50.828;6.440;2022-12-29T13:08:49;11.50;99.90
19555;DHT22;9924;50.828;6.440;2022-12-29T13:23:57;11.20;99.90
19555;DHT22;9924;50.828;6.440;2022-12-29T13:36:44;11.30;99.90
19555;DHT22;9924;50.828;6.440;2022-12-29T13:39:49;11.40;99.90
19555;DHT22;9924;50.828;6.440;2022-12-29T13:42:36;11.40;99.90
19555;DHT22;9924;50.828;6.440;2022-12-29T13:45:24;11.50;99.90
19555;DHT22;9924;50.828;6.440;2022-12-29T13:48:28;11.40;99.90
19555;DHT22;9924;50.828;6.440;2022-12-29T13:51:15;11.20;99.90
19555;DHT22;9924;50.828;6.440;2022-12-29T14:00:19;11.60;99.90
19555;DHT22;9924;50.828;6.440;2022-12-29T14:03:23;11.40;99.90
19555;DHT22;9924;50.828;6.440;2022-12-29T14:06:13;11.00;99.90
19555;DHT22;9924;50.828;6.440;2022-12-29T14:09:05;10.90;99.90
19555;DHT22;9924;50.828;6.440;2022-12-29T14:11:50;10.90;99.90
19555;DHT22;9924;50.828;6.440;2022-12-29T14:14:37;10.80;99.90
19555;DHT22;9924;50.828;6.440;2022-12-29T14:17:22;10.80;99.90
19555;DHT22;9924;50.828;6.440;2022-12-29T14:20:21;10.80;99.90
19555;DHT22;9924;50.828;6.440;2022-12-29T14:26:00;10.50;99.90
19555;DHT22;9924;50.828;6.440;2022-12-29T14:28:53;10.40;99.90
19555;DHT22;9924;50.828;6.440;2022-12-29T14:31:38;10.40;99.90
19555;DHT22;9924;50.828;6.440;2022-12-29T14:34:28;10.40;99.90
19555;DHT22;9924;50.828;6.440;2022-12-29T14:37:36;10.40;99.90
19555;DHT22;9924;50.828;6.440;2022-12-29T14:40:25;10.40;99.90
19555;DHT22;9924;50.828;6.440;2022-12-29T14:43:19;10.40;99.90
19555;DHT22;9924;50.828;6.440;2022-12-29T14:46:08;10.40;99.90
19555;DHT22;9924;50.828;6.440;2022-12-29T14:48:56;10.40;99.90
19555;DHT22;9924;50.828;6.440;2022-12-29T14:51:46;10.30;99.90
19555;DHT22;9924;50.828;6.440;2022-12-29T14:54:42;10.30;99.90
19555;DHT22;9924;50.828;6.440;2022-12-29T14:57:32;10.30;99.90
19555;DHT22;9924;50.828;6.440;2022-12-29T15:00:33;10.20;99.90
19555;DHT22;9924;50.828;6.440;2022-12-29T15:03:29;10.20;99.90
19555;DHT22;9924;50.828;6.440;2022-12-29T15:06:17;10.20;99.90
19555;DHT22;9924;50.828;6.440;2022-12-29T15:09:33;10.10;99.90
19555;DHT22;9924;50.828;6.440;2022-12-29T15:12:48;10.10;99.90
19555;DHT22;9924;50.828;6.440;2022-12-29T15:15:38;9.90;99.90
19555;DHT22;9924;50.828;6.440;2022-12-29T15:18:24;9.90;99.90
19555;DHT22;9924;50.828;6.440;2022-12-29T15:21:13;9.80;99.90
19555;DHT22;9924;50.828;6.440;2022-12-29T15:23:58;9.80;99.90
19555;DHT22;9924;50.828;6.440;2022-12-29T15:26:49;9.70;99.90
19555;DHT22;9924;50.828;6.440;2022-12-29T15:29:41;9.70;99.90
19555;DHT22;9924;50.828;6.440;2022-12-29T15:32:28;9.70;99.90
19555;DHT22;9924;50.828;6.440;2022-12-29T15:35:32;9.70;99.90
19555;DHT22;9924;50.828;6.440;2022-12-29T15:38:23;9.60;99.90
19555;DHT22;9924;50.828;6.440;2022-12-29T15:44:29;9.50;99.90
19555;DHT22;9924;50.828;6.440;2022-12-29T15:47:25;9.40;99.90
19555;DHT22;9924;50.828;6.440;2022-12-29T15:50:23;9.30;99.90
19555;DHT22;9924;50.828;6.440;2022-12-29T15:53:16;9.20;99.90
19555;DHT22;9924;50.828;6.440;2022-12-29T15:56:06;9.20;99.90
19555;DHT22;9924;50.828;6.440;2022-12-29T15:58:53;9.20;99.90
19555;DHT22;9924;50.828;6.440;2022-12-29T16:01:37;9.20;99.90
19555;DHT22;9924;50.828;6.440;2022-12-29T16:04:22;9.20;99.90
19555;DHT22;9924;50.828;6.440;2022-12-29T16:07:25;9.20;99.90
19555;DHT22;9924;50.828;6.440;2022-12-29T16:10:39;9.20;99.90
19555;DHT22;9924;50.828;6.440;2022-12-29T16:13:31;9.20;99.90
19555;DHT22;9924;50.828;6.440;2022-12-29T16:16:20;9.10;99.90
19555;DHT22;9924;50.828;6.440;2022-12-29T16:19:33;9.10;99.90
19555;DHT22;9924;50.828;6.440;2022-12-29T16:22:50;9.10;99.90
19555;DHT22;9924;50.828;6.440;2022-12-29T16:25:34;9.10;99.90
19555;DHT22;9924;50.828;6.440;2022-12-29T16:28:38;9.00;99.90
19555;DHT22;9924;50.828;6.440;2022-12-29T16:31:36;9.00;99.90
19555;DHT22;9924;50.828;6.440;2022-12-29T16:34:42;8.90;99.90
19555;DHT22;9924;50.828;6.440;2022-12-29T16:37:32;9.00;99.90
19555;DHT22;9924;50.828;6.440;2022-12-29T16:43:20;8.90;99.90
19555;DHT22;9924;50.828;6.440;2022-12-29T16:46:28;9.00;99.90
19555;DHT22;9924;50.828;6.440;2022-12-29T16:49:16;8.90;99.90
19555;DHT22;9924;50.828;6.440;2022-12-29T16:52:10;8.90;99.90
19555;DHT22;9924;50.828;6.440;2022-12-29T16:54:56;8.90;99.90
19555;DHT22;9924;50.828;6.440;2022-12-29T16:57:42;8.80;99.90
19555;DHT22;9924;50.828;6.440;2022-12-29T17:00:31;8.80;99.90
19555;DHT22;9924;50.828;6.440;2022-12-29T17:03:18;8.80;99.90
19555;DHT22;9924;50.828;6.440;2022-12-29T17:06:02;8.80;99.90
19555;DHT22;9924;50.828;6.440;2022-12-29T17:08:47;8.70;99.90
19555;DHT22;9924;50.828;6.440;2022-12-29T17:11:33;8.70;99.90
19555;DHT22;9924;50.828;6.440;2022-12-29T17:14:48;8.60;99.90
19555;DHT22;9924;50.828;6.440;2022-12-29T17:17:44;8.60;99.90
19555;DHT22;9924;50.828;6.440;2022-12-29T17:20:30;8.50;99.90
19555;DHT22;9924;50.828;6.440;2022-12-29T17:23:15;8.50;99.90
19555;DHT22;9924;50.828;6.440;2022-12-29T17:26:00;8.50;99.90
19555;DHT22;9924;50.828;6.440;2022-12-29T17:28:46;8.50;99.90
19555;DHT22;9924;50.828;6.440;2022-12-29T17:31:30;8.50;99.90
19555;DHT22;9924;50.828;6.440;2022-12-29T17:34:14;8.50;99.90
19555;DHT22;9924;50.828;6.440;2022-12-29T17:36:59;8.60;99.90
19555;DHT22;9924;50.828;6.440;2022-12-29T17:39:43;8.70;99.90
19555;DHT22;9924;50.828;6.440;2022-12-29T17:42:28;8.90;99.90
19555;DHT22;9924;50.828;6.440;2022-12-29T17:45:24;8.90;99.90
19555;DHT22;9924;50.828;6.440;2022-12-29T17:48:16;8.90;99.90
19555;DHT22;9924;50.828;6.440;2022-12-29T17:51:01;8.90;99.90
19555;DHT22;9924;50.828;6.440;2022-12-29T17:53:46;8.90;99.90
19555;DHT22;9924;50.828;6.440;2022-12-29T17:56:30;8.90;99.90
19555;DHT22;9924;50.828;6.440;2022-12-29T17:59:15;8.90;99.90
19555;DHT22;9924;50.828;6.440;2022-12-29T18:01:59;8.90;99.90
19555;DHT22;9924;50.828;6.440;2022-12-29T18:04:44;8.90;99.90
19555;DHT22;9924;50.828;6.440;2022-12-29T18:07:29;8.70;99.90
19555;DHT22;9924;50.828;6.440;2022-12-29T18:10:14;8.60;99.90
19555;DHT22;9924;50.828;6.440;2022-12-29T18:12:59;8.40;99.90
19555;DHT22;9924;50.828;6.440;2022-12-29T18:15:45;8.30;99.90
19555;DHT22;9924;50.828;6.440;2022-12-29T18:18:30;8.10;99.90
19555;DHT22;9924;50.828;6.440;2022-12-29T18:21:19;8.00;99.90
19555;DHT22;9924;50.828;6.440;2022-12-29T18:24:04;7.90;99.90
19555;DHT22;9924;50.828;6.440;2022-12-29T18:26:49;7.80;99.90
19555;DHT22;9924;50.828;6.440;2022-12-29T18:29:33;7.80;99.90
19555;DHT22;9924;50.828;6.440;2022-12-29T18:32:19;7.70;99.90
19555;DHT22;9924;50.828;6.440;2022-12-29T18:35:19;7.70;99.90
19555;DHT22;9924;50.828;6.440;2022-12-29T18:38:06;7.80;99.90
19555;DHT22;9924;50.828;6.440;2022-12-29T18:40:50;7.80;99.90
19555;DHT22;9924;50.828;6.440;2022-12-29T18:43:35;7.80;99.90
19555;DHT22;9924;50.828;6.440;2022-12-29T18:46:19;7.80;99.90
19555;DHT22;9924;50.828;6.440;2022-12-29T18:49:04;7.80;99.90
19555;DHT22;9924;50.828;6.440;2022-12-29T18:51:48;7.70;99.90
19555;DHT22;9924;50.828;6.440;2022-12-29T18:54:32;7.60;99.90
19555;DHT22;9924;50.828;6.440;2022-12-29T18:57:17;7.50;99.90
19555;DHT22;9924;50.828;6.440;2022-12-29T19:00:01;7.40;99.90
19555;DHT22;9924;50.828;6.440;2022-12-29T19:02:47;7.40;99.90
19555;DHT22;9924;50.828;6.440;2022-12-29T19:05:36;7.40;99.90
19555;DHT22;9924;50.828;6.440;2022-12-29T19:08:21;7.30;99.90
19555;DHT22;9924;50.828;6.440;2022-12-29T19:11:05;7.30;99.90
19555;DHT22;9924;50.828;6.440;2022-12-29T19:13:50;7.30;99.90
19555;DHT22;9924;50.828;6.440;2022-12-29T19:16:34;7.30;99.90
19555;DHT22;9924;50.828;6.440;2022-12-29T19:19:19;7.30;99.90
19555;DHT22;9924;50.828;6.440;2022-12-29T19:22:04;7.20;99.90
19555;DHT22;9924;50.828;6.440;2022-12-29T19:24:48;7.20;99.90
19555;DHT22;9924;50.828;6.440;2022-12-29T19:27:32;7.10;99.90
19555;DHT22;9924;50.828;6.440;2022-12-29T19:30:19;7.10;99.90
19555;DHT22;9924;50.828;6.440;2022-12-29T19:33:03;7.00;99.90
19555;DHT22;9924;50.828;6.440;2022-12-29T19:35:48;7.00;99.90
19555;DHT22;9924;50.828;6.440;2022-12-29T19:38:33;7.10;99.90
19555;DHT22;9924;50.828;6.440;2022-12-29T19:41:17;7.00;99.90
19555;DHT22;9924;50.828;6.440;2022-12-29T19:44:01;7.00;99.90
19555;DHT22;9924;50.828;6.440;2022-12-29T19:46:46;7.00;99.90
19555;DHT22;9924;50.828;6.440;2022-12-29T19:49:30;7.00;99.90
19555;DHT22;9924;50.828;6.440;2022-12-29T19:52:14;7.00;99.90
19555;DHT22;9924;50.828;6.440;2022-12-29T19:54:59;7.00;99.90
19555;DHT22;9924;50.828;6.440;2022-12-29T19:57:43;7.00;99.90
19555;DHT22;9924;50.828;6.440;2022-12-29T20:00:27;7.10;99.90